createdAt,value
2023-05-15T00:00:06.796Z,13.50
2023-05-15T00:02:46.976Z,13.30
2023-05-15T00:05:16.240Z,13.30
2023-05-15T00:07:46.526Z,13.40
2023-05-15T00:10:15.460Z,13.50
2023-05-15T00:12:44.737Z,13.50
2023-05-15T00:54:16.329Z,12.90
2023-05-15T00:56:46.408Z,12.80
2023-05-15T00:59:15.640Z,12.80
2023-05-15T01:01:46.996Z,12.80
2023-05-15T01:04:16.470Z,12.80
2023-05-15T01:06:45.391Z,12.90
2023-05-15T01:09:16.362Z,12.90
2023-05-15T01:11:47.983Z,13.00
2023-05-15T01:14:16.812Z,12.80
2023-05-15T01:16:46.751Z,12.70
2023-05-15T01:19:15.935Z,12.90
2023-05-15T01:22:17.845Z,12.90
2023-05-15T01:25:25.065Z,13.00
2023-05-15T01:27:58.047Z,13.00
2023-05-15T01:30:30.411Z,13.00
2023-05-15T01:33:06.769Z,12.90
2023-05-15T01:35:40.836Z,12.90
2023-05-15T01:38:17.887Z,12.90
2023-05-15T01:40:49.031Z,13.00
2023-05-15T01:43:23.090Z,13.00
2023-05-15T01:45:51.971Z,13.00
2023-05-15T01:48:22.353Z,12.80
2023-05-15T01:50:55.662Z,12.80
2023-05-15T01:53:24.590Z,12.60
2023-05-15T01:55:54.956Z,12.60
2023-05-15T01:58:27.561Z,12.60
2023-05-15T02:00:57.559Z,12.50
2023-05-15T02:03:27.056Z,12.60
2023-05-15T02:05:57.072Z,12.50
2023-05-15T02:08:29.293Z,12.60
2023-05-15T02:10:59.278Z,12.60
2023-05-15T02:13:30.778Z,12.60
2023-05-15T02:15:59.728Z,12.50
2023-05-15T02:18:29.140Z,12.50
2023-05-15T02:21:01.063Z,12.50
2023-05-15T02:23:30.112Z,12.50
2023-05-15T02:26:09.751Z,12.30
2023-05-15T02:28:49.161Z,12.20
2023-05-15T02:31:27.667Z,12.20
2023-05-15T02:33:59.828Z,12.20
2023-05-15T02:36:33.631Z,12.20
2023-05-15T02:39:03.826Z,12.10
2023-05-15T02:41:34.530Z,12.00
2023-05-15T02:44:05.265Z,12.10
2023-05-15T02:46:34.632Z,12.00
2023-05-15T02:49:04.173Z,12.00
2023-05-15T02:51:33.526Z,12.00
2023-05-15T02:54:02.711Z,12.10
2023-05-15T02:56:31.436Z,12.10
2023-05-15T02:59:00.204Z,12.30
2023-05-15T03:01:30.377Z,12.30
2023-05-15T03:03:59.304Z,12.30
2023-05-15T03:06:28.213Z,12.30
2023-05-15T03:08:57.089Z,12.30
2023-05-15T03:11:25.946Z,12.20
2023-05-15T03:13:54.789Z,12.20
2023-05-15T03:16:23.588Z,12.20
2023-05-15T03:18:53.992Z,12.10
2023-05-15T03:21:22.798Z,12.00
2023-05-15T03:23:51.642Z,11.90
2023-05-15T03:26:20.504Z,12.00
2023-05-15T03:28:49.345Z,12.00
2023-05-15T03:31:18.282Z,11.90
2023-05-15T03:33:51.559Z,12.00
2023-05-15T03:36:22.615Z,12.00
2023-05-15T03:38:51.766Z,12.00
2023-05-15T03:41:21.295Z,12.10
2023-05-15T03:43:50.184Z,12.30
2023-05-15T03:51:19.848Z,12.40
2023-05-15T03:56:18.700Z,12.20
2023-05-15T03:59:58.177Z,12.20
2023-05-15T04:07:38.234Z,12.20
2023-05-15T04:10:08.220Z,12.40
2023-05-15T04:12:37.534Z,12.40
2023-05-15T04:15:18.104Z,12.30
2023-05-15T04:17:48.245Z,12.40
2023-05-15T04:20:18.514Z,12.50
2023-05-15T04:22:48.419Z,12.40
2023-05-15T04:25:18.110Z,12.50
2023-05-15T04:27:47.548Z,12.60
2023-05-15T04:30:17.801Z,12.60
2023-05-15T04:32:46.518Z,12.50
2023-05-15T04:35:15.776Z,12.50
2023-05-15T04:37:46.923Z,12.50
2023-05-15T04:40:16.711Z,12.50
2023-05-15T04:42:45.752Z,12.40
2023-05-15T04:45:14.818Z,12.30
2023-05-15T04:47:45.018Z,12.30
2023-05-15T04:50:13.887Z,12.30
2023-05-15T04:52:44.017Z,12.40
2023-05-15T04:55:12.906Z,12.50
2023-05-15T04:57:41.827Z,12.60
2023-05-15T05:00:12.504Z,12.70
2023-05-15T05:02:43.116Z,12.50
2023-05-15T05:05:14.848Z,12.50
2023-05-15T05:07:45.823Z,12.60
2023-05-15T05:10:14.873Z,12.50
2023-05-15T05:12:43.684Z,12.70
2023-05-15T05:15:12.991Z,12.70
2023-05-15T05:17:42.266Z,12.90
2023-05-15T05:20:13.757Z,12.90
2023-05-15T05:22:42.802Z,12.50
2023-05-15T05:25:11.902Z,12.40
2023-05-15T05:27:40.680Z,12.40
2023-05-15T05:30:10.512Z,12.40
2023-05-15T05:32:39.818Z,12.50
2023-05-15T05:35:09.239Z,12.70
2023-05-15T05:37:41.133Z,12.90
2023-05-15T05:40:11.488Z,13.20
2023-05-15T05:42:40.586Z,13.40
2023-05-15T05:45:10.204Z,13.50
2023-05-15T05:47:38.844Z,13.60
2023-05-15T05:50:09.358Z,13.50
2023-05-15T05:52:39.560Z,13.50
2023-05-15T05:55:08.693Z,13.20
2023-05-15T05:57:37.806Z,12.90
2023-05-15T06:00:08.892Z,12.90
2023-05-15T06:02:38.444Z,12.80
2023-05-15T06:05:08.644Z,12.70
2023-05-15T06:07:37.490Z,12.50
2023-05-15T06:10:09.986Z,12.50
2023-05-15T06:12:39.402Z,12.50
2023-05-15T06:15:09.310Z,12.50
2023-05-15T06:17:38.248Z,12.90
2023-05-15T06:20:08.437Z,13.10
2023-05-15T06:22:38.237Z,13.10
2023-05-15T06:25:13.733Z,13.10
2023-05-15T06:27:42.819Z,13.20
2023-05-15T06:30:12.808Z,13.30
2023-05-15T06:32:41.942Z,13.40
2023-05-15T06:35:11.484Z,13.40
2023-05-15T06:37:40.557Z,13.30
2023-05-15T06:40:12.229Z,13.30
2023-05-15T06:42:41.008Z,13.40
2023-05-15T06:45:11.382Z,13.40
2023-05-15T06:47:40.262Z,13.80
2023-05-15T06:50:10.025Z,14.10
2023-05-15T06:52:38.987Z,14.20
2023-05-15T06:55:08.295Z,14.50
2023-05-15T06:57:38.683Z,14.60
2023-05-15T07:00:08.784Z,14.60
2023-05-15T07:02:37.630Z,14.60
2023-05-15T07:05:07.314Z,14.80
2023-05-15T07:07:36.154Z,15.00
2023-05-15T07:10:05.577Z,15.00
2023-05-15T07:12:34.410Z,15.10
2023-05-15T07:15:05.316Z,15.30
2023-05-15T07:17:35.302Z,15.30
2023-05-15T07:20:06.220Z,15.20
2023-05-15T07:22:39.023Z,15.20
2023-05-15T07:25:17.497Z,15.20
2023-05-15T07:27:46.305Z,15.10
2023-05-15T07:30:17.017Z,15.20
2023-05-15T07:32:46.342Z,15.20
2023-05-15T07:35:15.387Z,15.40
2023-05-15T07:37:44.517Z,15.50
2023-05-15T07:40:13.958Z,15.90
2023-05-15T07:42:45.169Z,16.20
2023-05-15T07:45:14.591Z,16.50
2023-05-15T07:47:47.070Z,16.60
2023-05-15T07:50:16.736Z,16.40
2023-05-15T07:52:45.740Z,16.70
2023-05-15T07:55:14.888Z,16.90
2023-05-15T07:57:43.669Z,16.80
2023-05-15T08:00:14.104Z,16.70
2023-05-15T08:02:46.440Z,16.70
2023-05-15T08:05:15.448Z,16.80
2023-05-15T08:07:44.633Z,16.90
2023-05-15T08:10:13.478Z,16.80
2023-05-15T08:12:46.283Z,16.80
2023-05-15T08:15:15.527Z,16.90
2023-05-15T08:17:45.799Z,17.00
2023-05-15T08:20:15.073Z,17.20
2023-05-15T08:22:44.010Z,17.20
2023-05-15T08:25:12.952Z,17.30
2023-05-15T08:27:41.941Z,17.30
2023-05-15T08:30:11.682Z,17.50
2023-05-15T08:32:40.716Z,17.70
2023-05-15T08:35:11.551Z,17.70
2023-05-15T08:37:40.586Z,17.80
2023-05-15T08:40:10.350Z,17.40
2023-05-15T08:42:45.205Z,17.40
2023-05-15T08:45:14.747Z,17.50
2023-05-15T08:47:44.669Z,17.60
2023-05-15T08:50:16.514Z,17.60
2023-05-15T08:52:47.109Z,17.80
2023-05-15T08:55:16.692Z,17.60
2023-05-15T08:57:46.296Z,17.60
2023-05-15T09:00:16.264Z,17.50
2023-05-15T09:02:45.439Z,17.50
2023-05-15T09:05:15.833Z,17.50
2023-05-15T09:07:47.001Z,17.40
2023-05-15T09:10:16.782Z,17.50
2023-05-15T09:12:46.221Z,17.20
2023-05-15T09:15:18.019Z,17.20
2023-05-15T09:17:47.818Z,17.00
2023-05-15T09:20:29.111Z,17.30
2023-05-15T09:22:58.577Z,17.40
2023-05-15T09:25:38.642Z,17.30
2023-05-15T09:28:07.678Z,17.10
2023-05-15T09:30:39.254Z,17.20
2023-05-15T09:33:08.553Z,17.40
2023-05-15T09:35:40.729Z,17.50
2023-05-15T09:38:10.376Z,17.70
2023-05-15T09:40:40.543Z,18.10
2023-05-15T09:43:12.213Z,18.10
2023-05-15T09:45:41.083Z,18.00
2023-05-15T09:48:11.987Z,18.00
2023-05-15T09:50:43.027Z,18.20
2023-05-15T09:53:14.210Z,18.30
2023-05-15T09:55:43.847Z,18.40
2023-05-15T09:58:14.340Z,18.50
2023-05-15T10:00:47.660Z,18.50
2023-05-15T10:03:20.336Z,18.40
2023-05-15T10:05:50.862Z,18.60
2023-05-15T10:08:29.358Z,18.90
2023-05-15T10:11:01.632Z,19.20
2023-05-15T10:13:35.500Z,19.10
2023-05-15T10:16:05.997Z,19.00
2023-05-15T10:18:37.290Z,19.10
2023-05-15T10:21:09.046Z,19.20
2023-05-15T10:23:38.875Z,19.20
2023-05-15T10:26:13.931Z,18.80
2023-05-15T10:28:44.952Z,18.80
2023-05-15T10:31:14.888Z,18.80
2023-05-15T10:33:45.500Z,19.00
2023-05-15T10:36:17.538Z,19.20
2023-05-15T10:38:47.864Z,19.10
2023-05-15T10:41:19.007Z,19.20
2023-05-15T10:43:48.182Z,18.80
2023-05-15T10:46:17.827Z,18.80
2023-05-15T10:48:46.827Z,18.90
2023-05-15T10:51:19.300Z,19.00
2023-05-15T10:53:48.208Z,18.90
2023-05-15T10:56:17.839Z,18.90
2023-05-15T10:58:48.547Z,18.90
2023-05-15T11:01:28.526Z,19.00
2023-05-15T11:04:13.428Z,19.00
2023-05-15T11:06:45.753Z,18.70
2023-05-15T11:09:40.218Z,19.00
2023-05-15T11:12:11.656Z,19.00
2023-05-15T11:14:42.096Z,19.10
2023-05-15T11:17:12.057Z,19.00
2023-05-15T11:20:09.131Z,19.00
2023-05-15T11:22:40.564Z,19.00
2023-05-15T11:25:12.040Z,19.30
2023-05-15T11:27:42.609Z,18.90
2023-05-15T11:30:14.835Z,18.60
2023-05-15T11:32:45.992Z,18.50
2023-05-15T11:35:20.629Z,18.70
2023-05-15T11:37:54.026Z,18.50
2023-05-15T11:40:25.944Z,18.80
2023-05-15T11:43:06.510Z,19.00
2023-05-15T11:45:37.007Z,18.50
2023-05-15T11:48:09.673Z,18.40
2023-05-15T11:50:39.087Z,18.10
2023-05-15T11:53:11.441Z,18.20
2023-05-15T11:55:41.586Z,18.30
2023-05-15T11:58:13.947Z,18.40
2023-05-15T12:00:43.843Z,18.40
2023-05-15T12:03:17.668Z,18.10
2023-05-15T12:05:57.628Z,17.90
2023-05-15T12:08:33.326Z,18.00
2023-05-15T12:11:04.015Z,18.00
2023-05-15T12:13:35.347Z,18.10
2023-05-15T12:16:05.473Z,18.00
2023-05-15T12:18:35.006Z,17.80
2023-05-15T12:21:05.456Z,18.00
2023-05-15T12:26:46.782Z,18.00
2023-05-15T12:29:15.991Z,17.90
2023-05-15T12:36:22.053Z,17.70
2023-05-15T12:38:52.659Z,17.50
2023-05-15T12:41:21.815Z,17.40
2023-05-15T12:44:15.487Z,17.20
2023-05-15T12:46:47.322Z,16.90
2023-05-15T12:50:21.827Z,16.50
2023-05-15T12:53:59.825Z,16.30
2023-05-15T13:02:08.491Z,16.20
2023-05-15T13:04:49.676Z,15.90
2023-05-15T13:07:18.807Z,15.90
2023-05-15T13:10:03.057Z,15.60
2023-05-15T13:12:37.835Z,15.50
2023-05-15T13:15:08.735Z,15.30
2023-05-15T13:17:40.317Z,15.00
2023-05-15T13:20:12.682Z,14.90
2023-05-15T13:22:44.902Z,14.70
2023-05-15T13:25:21.147Z,14.50
2023-05-15T13:28:08.088Z,14.30
2023-05-15T13:30:46.022Z,14.20
2023-05-15T13:33:19.612Z,14.20
2023-05-15T13:36:01.771Z,14.20
2023-05-15T13:38:37.453Z,14.10
2023-05-15T13:41:17.548Z,13.90
2023-05-15T13:43:58.593Z,13.90
2023-05-15T13:46:35.566Z,14.00
2023-05-15T13:49:08.592Z,13.90
2023-05-15T13:52:32.386Z,14.00
2023-05-15T13:55:09.643Z,14.00
2023-05-15T13:57:42.611Z,14.00
2023-05-15T14:00:21.759Z,13.80
2023-05-15T14:03:38.619Z,14.00
2023-05-15T14:06:42.753Z,14.00
2023-05-15T14:09:16.673Z,13.90
2023-05-15T14:11:45.685Z,13.90
2023-05-15T14:14:17.517Z,13.80
2023-05-15T14:17:11.829Z,13.60
2023-05-15T14:24:12.275Z,13.80
2023-05-15T14:26:53.992Z,13.90
2023-05-15T14:29:26.885Z,13.50
2023-05-15T14:31:56.301Z,13.30
2023-05-15T14:34:26.980Z,13.10
2023-05-15T14:36:56.230Z,13.20
2023-05-15T14:39:35.572Z,13.30
2023-05-15T15:13:21.808Z,13.90
2023-05-15T15:15:51.591Z,14.00
2023-05-15T15:18:22.280Z,13.90
2023-05-15T15:20:54.316Z,14.00
2023-05-15T15:24:16.577Z,14.00
2023-05-15T15:26:48.971Z,14.20
2023-05-15T15:29:18.964Z,14.30
2023-05-15T15:31:47.747Z,14.20
2023-05-15T15:34:17.032Z,14.10
2023-05-15T15:36:48.478Z,14.30
2023-05-15T15:39:17.372Z,13.90
2023-05-15T15:41:46.364Z,13.80
2023-05-15T15:44:15.114Z,14.10
2023-05-15T15:46:45.439Z,14.30
2023-05-15T15:49:17.212Z,14.40
2023-05-15T15:51:53.203Z,14.60
2023-05-15T15:54:27.394Z,14.70
2023-05-15T15:56:56.368Z,14.80
2023-05-15T15:59:25.485Z,14.50
2023-05-15T16:25:55.990Z,14.00
2023-05-15T19:38:16.907Z,11.80
2023-05-15T19:41:04.247Z,11.90
2023-05-15T19:43:51.412Z,12.00
2023-05-15T19:46:21.438Z,11.90
2023-05-15T19:49:31.192Z,11.90
2023-05-15T19:52:26.471Z,12.00
2023-05-15T19:56:01.731Z,12.00
2023-05-15T21:15:39.101Z,11.90
2023-05-15T21:18:11.602Z,11.80
2023-05-15T21:20:57.909Z,11.70
2023-05-15T21:26:59.391Z,11.70
2023-05-15T21:29:32.672Z,11.80
2023-05-15T22:07:31.830Z,11.80
2023-05-15T22:10:21.679Z,12.00
2023-05-15T22:12:55.422Z,11.80
2023-05-15T22:15:24.774Z,11.70
2023-05-15T22:18:38.485Z,11.50
2023-05-15T22:21:08.604Z,11.70
2023-05-15T22:23:39.205Z,11.70
2023-05-15T22:26:11.816Z,11.50
2023-05-15T22:28:40.896Z,11.70
2023-05-15T22:31:09.829Z,11.50
2023-05-15T22:33:39.278Z,11.60
2023-05-15T22:36:08.714Z,11.70
2023-05-15T22:38:41.868Z,11.60
2023-05-15T22:41:16.905Z,11.60
2023-05-15T22:43:45.916Z,11.50
2023-05-15T22:46:18.033Z,11.60
2023-05-15T22:48:46.993Z,11.70
2023-05-15T22:51:18.950Z,11.30
2023-05-15T22:54:03.791Z,11.50
2023-05-15T22:56:34.576Z,11.60
2023-05-15T22:59:04.340Z,11.50
2023-05-15T23:01:36.967Z,11.30
2023-05-15T23:04:06.367Z,11.40
2023-05-15T23:06:38.150Z,11.60
2023-05-15T23:09:08.838Z,11.70
2023-05-15T23:11:39.288Z,11.60
2023-05-15T23:14:09.583Z,11.50
2023-05-15T23:16:40.906Z,11.30
2023-05-15T23:19:12.726Z,11.20
2023-05-15T23:21:41.550Z,11.10
2023-05-15T23:24:14.668Z,11.10
2023-05-15T23:26:51.535Z,11.20
2023-05-15T23:29:20.418Z,11.30
2023-05-15T23:31:52.275Z,11.20
2023-05-15T23:34:21.276Z,11.00
2023-05-15T23:36:50.065Z,11.00
2023-05-15T23:39:20.243Z,11.10
2023-05-15T23:41:49.248Z,11.20
2023-05-15T23:44:18.098Z,11.20
2023-05-15T23:46:49.753Z,11.40
2023-05-15T23:49:18.973Z,11.30
